Terminal Aerodrome Forecast
Issued by NWS

Home | Current Version | Previous Version | Graphics & Text | Print | Product List | Glossary On
Versions: 1 2 3 4 5 6 7 8 9 10 11 12 13 14 15 16 17 18 19 20 21 22 23 24 25
000
FTUS43 KABR 151700
TAFATY
TAF
KATY 151736Z 1518/1618 18012G17KT P6SM SKC
     FM152300 14019G26KT P6SM BKN250
     FM160800 09018G25KT P6SM VCSH OVC080
     FM161000 08016G23KT 4SM -RASN OVC035
     FM161200 05013G21KT 1SM -SN OVC015=

USA.gov is the U.S. government's official web portal to all federal, state and local government web resources and services.